ETWM

Meppe Airport

Germany
METAR ETWM 092020Z AUTO 29007G19KT 9999 // ////// 06/02 Q1008 ///
Observed Flight Rules
Dec-9 @ 20:20 UTC (an hour ago)
Wind Visibility
290° at 7 knots
 Gusting to 19 knots
10,000+ meters
Temperatures Readings
Current 6°C / 43°F
Dewpoint 2°C / 36°F
Humidity 76%
Altimeter 29.76" Hg
Pressure 1008 hPa
Elevation 21
METAR ETWM 092020Z AUTO 29007G19KT 9999 // ////// 06/02 Q1008 ///
Observed Flight Rules
Dec-9 @ 20:20 UTC
(an hour ago)
Wind Visibility
290° at 7 knots
 Gusting to 19 knots
10,000+ meters
Temperature Dewpoint
6°C / 43°F 2°C / 36°F
Humidity Altimeter Pressure
76% 29.76" Hg 1008 hPa